sensor_id;sensor_type;location;lat;lon;timestamp;P1;durP1;ratioP1;P2;durP2;ratioP2
3849;SDS011;1940;51.052;13.678;2023-06-10T00:01:38;16.60;;;10.90;;
3849;SDS011;1940;51.052;13.678;2023-06-10T00:04:04;14.73;;;10.77;;
3849;SDS011;1940;51.052;13.678;2023-06-10T00:06:30;15.10;;;11.00;;
3849;SDS011;1940;51.052;13.678;2023-06-10T00:09:00;13.70;;;10.77;;
3849;SDS011;1940;51.052;13.678;2023-06-10T00:11:27;14.17;;;10.83;;
3849;SDS011;1940;51.052;13.678;2023-06-10T00:13:52;15.70;;;10.63;;
3849;SDS011;1940;51.052;13.678;2023-06-10T00:16:17;14.00;;;10.70;;
3849;SDS011;1940;51.052;13.678;2023-06-10T00:18:43;17.67;;;11.30;;
3849;SDS011;1940;51.052;13.678;2023-06-10T00:21:09;14.40;;;11.30;;
3849;SDS011;1940;51.052;13.678;2023-06-10T00:23:35;14.37;;;10.80;;
3849;SDS011;1940;51.052;13.678;2023-06-10T00:26:02;16.80;;;11.57;;
3849;SDS011;1940;51.052;13.678;2023-06-10T00:28:29;15.33;;;11.10;;
3849;SDS011;1940;51.052;13.678;2023-06-10T00:30:54;17.67;;;10.67;;
3849;SDS011;1940;51.052;13.678;2023-06-10T00:33:20;14.50;;;11.00;;
3849;SDS011;1940;51.052;13.678;2023-06-10T00:35:46;14.83;;;11.07;;
3849;SDS011;1940;51.052;13.678;2023-06-10T00:38:13;14.67;;;10.83;;
3849;SDS011;1940;51.052;13.678;2023-06-10T00:40:40;16.13;;;11.40;;
3849;SDS011;1940;51.052;13.678;2023-06-10T00:43:08;15.30;;;10.53;;
3849;SDS011;1940;51.052;13.678;2023-06-10T00:45:34;15.60;;;10.70;;
3849;SDS011;1940;51.052;13.678;2023-06-10T00:48:00;14.00;;;10.47;;
3849;SDS011;1940;51.052;13.678;2023-06-10T00:50:26;15.57;;;10.97;;
3849;SDS011;1940;51.052;13.678;2023-06-10T00:52:53;14.07;;;10.40;;
3849;SDS011;1940;51.052;13.678;2023-06-10T00:55:19;14.67;;;10.57;;
3849;SDS011;1940;51.052;13.678;2023-06-10T00:57:45;14.00;;;10.70;;
3849;SDS011;1940;51.052;13.678;2023-06-10T01:00:13;13.83;;;10.30;;
3849;SDS011;1940;51.052;13.678;2023-06-10T01:02:40;17.77;;;10.47;;
3849;SDS011;1940;51.052;13.678;2023-06-10T01:05:06;13.60;;;10.00;;
3849;SDS011;1940;51.052;13.678;2023-06-10T01:07:43;16.70;;;10.13;;
3849;SDS011;1940;51.052;13.678;2023-06-10T01:10:41;15.10;;;9.50;;
3849;SDS011;1940;51.052;13.678;2023-06-10T01:13:16;14.60;;;11.10;;
3849;SDS011;1940;51.052;13.678;2023-06-10T01:15:43;14.60;;;11.00;;
3849;SDS011;1940;51.052;13.678;2023-06-10T01:18:09;14.70;;;10.70;;
3849;SDS011;1940;51.052;13.678;2023-06-10T01:20:40;13.57;;;10.50;;
3849;SDS011;1940;51.052;13.678;2023-06-10T01:23:06;12.93;;;10.17;;
3849;SDS011;1940;51.052;13.678;2023-06-10T01:25:33;16.00;;;10.43;;
3849;SDS011;1940;51.052;13.678;2023-06-10T01:28:14;15.73;;;10.87;;
3849;SDS011;1940;51.052;13.678;2023-06-10T01:31:11;15.73;;;11.27;;
3849;SDS011;1940;51.052;13.678;2023-06-10T01:33:59;13.67;;;10.57;;
3849;SDS011;1940;51.052;13.678;2023-06-10T01:36:25;15.50;;;9.80;;
3849;SDS011;1940;51.052;13.678;2023-06-10T01:38:52;16.10;;;10.77;;
3849;SDS011;1940;51.052;13.678;2023-06-10T01:41:20;13.43;;;10.10;;
3849;SDS011;1940;51.052;13.678;2023-06-10T01:43:47;14.63;;;10.63;;
3849;SDS011;1940;51.052;13.678;2023-06-10T01:46:12;15.43;;;10.33;;
3849;SDS011;1940;51.052;13.678;2023-06-10T01:48:38;14.63;;;10.87;;
3849;SDS011;1940;51.052;13.678;2023-06-10T01:51:04;13.60;;;10.10;;
3849;SDS011;1940;51.052;13.678;2023-06-10T01:53:30;15.77;;;10.90;;
3849;SDS011;1940;51.052;13.678;2023-06-10T01:55:55;15.23;;;9.80;;
3849;SDS011;1940;51.052;13.678;2023-06-10T01:58:21;14.83;;;10.37;;
3849;SDS011;1940;51.052;13.678;2023-06-10T02:00:47;13.40;;;10.27;;
3849;SDS011;1940;51.052;13.678;2023-06-10T02:03:12;13.20;;;10.27;;
3849;SDS011;1940;51.052;13.678;2023-06-10T02:05:38;12.90;;;8.97;;
3849;SDS011;1940;51.052;13.678;2023-06-10T02:08:04;12.63;;;10.27;;
3849;SDS011;1940;51.052;13.678;2023-06-10T02:10:30;15.10;;;10.80;;
3849;SDS011;1940;51.052;13.678;2023-06-10T02:12:55;14.17;;;10.20;;
3849;SDS011;1940;51.052;13.678;2023-06-10T02:15:21;13.30;;;9.57;;
3849;SDS011;1940;51.052;13.678;2023-06-10T02:17:46;15.40;;;10.70;;
3849;SDS011;1940;51.052;13.678;2023-06-10T02:20:13;15.53;;;10.63;;
3849;SDS011;1940;51.052;13.678;2023-06-10T02:22:39;12.83;;;10.07;;
3849;SDS011;1940;51.052;13.678;2023-06-10T02:25:05;16.10;;;10.90;;
3849;SDS011;1940;51.052;13.678;2023-06-10T02:27:31;15.80;;;9.53;;
3849;SDS011;1940;51.052;13.678;2023-06-10T02:29:57;14.20;;;10.53;;
3849;SDS011;1940;51.052;13.678;2023-06-10T02:32:22;14.67;;;10.13;;
3849;SDS011;1940;51.052;13.678;2023-06-10T02:34:48;14.83;;;10.27;;
3849;SDS011;1940;51.052;13.678;2023-06-10T02:37:17;14.60;;;10.40;;
3849;SDS011;1940;51.052;13.678;2023-06-10T02:39:43;20.03;;;10.00;;
3849;SDS011;1940;51.052;13.678;2023-06-10T02:42:08;14.50;;;10.30;;
3849;SDS011;1940;51.052;13.678;2023-06-10T02:44:35;16.67;;;10.97;;
3849;SDS011;1940;51.052;13.678;2023-06-10T02:47:01;12.83;;;9.77;;
3849;SDS011;1940;51.052;13.678;2023-06-10T02:49:26;16.80;;;10.43;;
3849;SDS011;1940;51.052;13.678;2023-06-10T02:51:54;16.67;;;10.57;;
3849;SDS011;1940;51.052;13.678;2023-06-10T02:54:21;18.53;;;11.67;;
3849;SDS011;1940;51.052;13.678;2023-06-10T02:56:47;17.50;;;11.03;;
3849;SDS011;1940;51.052;13.678;2023-06-10T02:59:13;14.87;;;10.93;;
3849;SDS011;1940;51.052;13.678;2023-06-10T03:01:39;14.00;;;10.87;;
3849;SDS011;1940;51.052;13.678;2023-06-10T03:04:05;17.80;;;11.27;;
3849;SDS011;1940;51.052;13.678;2023-06-10T03:06:32;14.47;;;10.90;;
3849;SDS011;1940;51.052;13.678;2023-06-10T03:09:01;16.47;;;11.47;;
3849;SDS011;1940;51.052;13.678;2023-06-10T03:11:29;14.47;;;10.73;;
3849;SDS011;1940;51.052;13.678;2023-06-10T03:13:54;17.00;;;12.10;;
3849;SDS011;1940;51.052;13.678;2023-06-10T03:16:21;14.80;;;11.00;;
3849;SDS011;1940;51.052;13.678;2023-06-10T03:18:46;16.07;;;11.37;;
3849;SDS011;1940;51.052;13.678;2023-06-10T03:21:13;16.30;;;10.97;;
3849;SDS011;1940;51.052;13.678;2023-06-10T03:23:39;14.90;;;11.20;;
3849;SDS011;1940;51.052;13.678;2023-06-10T03:26:04;14.17;;;10.43;;
3849;SDS011;1940;51.052;13.678;2023-06-10T03:28:30;14.20;;;10.47;;
3849;SDS011;1940;51.052;13.678;2023-06-10T03:30:56;13.43;;;10.77;;
3849;SDS011;1940;51.052;13.678;2023-06-10T03:33:22;13.57;;;10.80;;
3849;SDS011;1940;51.052;13.678;2023-06-10T03:35:47;13.20;;;9.60;;
3849;SDS011;1940;51.052;13.678;2023-06-10T03:38:13;14.30;;;10.37;;
3849;SDS011;1940;51.052;13.678;2023-06-10T03:40:38;14.67;;;10.00;;
3849;SDS011;1940;51.052;13.678;2023-06-10T03:43:04;13.67;;;9.87;;
3849;SDS011;1940;51.052;13.678;2023-06-10T03:45:29;11.37;;;9.10;;
3849;SDS011;1940;51.052;13.678;2023-06-10T03:47:55;14.10;;;10.10;;
3849;SDS011;1940;51.052;13.678;2023-06-10T03:50:21;12.10;;;9.20;;
3849;SDS011;1940;51.052;13.678;2023-06-10T03:52:48;11.73;;;9.23;;
3849;SDS011;1940;51.052;13.678;2023-06-10T03:55:14;13.57;;;9.57;;
3849;SDS011;1940;51.052;13.678;2023-06-10T03:57:41;13.67;;;9.33;;
3849;SDS011;1940;51.052;13.678;2023-06-10T04:00:07;13.63;;;8.90;;
3849;SDS011;1940;51.052;13.678;2023-06-10T04:02:37;12.60;;;9.77;;
3849;SDS011;1940;51.052;13.678;2023-06-10T04:05:06;14.20;;;9.37;;
3849;SDS011;1940;51.052;13.678;2023-06-10T04:07:32;13.67;;;10.00;;
3849;SDS011;1940;51.052;13.678;2023-06-10T04:09:59;11.10;;;9.23;;
3849;SDS011;1940;51.052;13.678;2023-06-10T04:12:24;11.60;;;9.40;;
3849;SDS011;1940;51.052;13.678;2023-06-10T04:14:50;12.10;;;9.77;;
3849;SDS011;1940;51.052;13.678;2023-06-10T04:17:17;10.83;;;9.50;;
3849;SDS011;1940;51.052;13.678;2023-06-10T04:19:42;12.00;;;8.57;;
3849;SDS011;1940;51.052;13.678;2023-06-10T04:22:08;11.10;;;9.20;;
3849;SDS011;1940;51.052;13.678;2023-06-10T04:24:33;12.70;;;9.40;;
3849;SDS011;1940;51.052;13.678;2023-06-10T04:26:59;17.17;;;9.60;;
3849;SDS011;1940;51.052;13.678;2023-06-10T04:29:25;12.00;;;8.83;;
3849;SDS011;1940;51.052;13.678;2023-06-10T04:31:50;11.43;;;9.20;;
3849;SDS011;1940;51.052;13.678;2023-06-10T04:34:16;12.13;;;8.87;;
3849;SDS011;1940;51.052;13.678;2023-06-10T04:36:42;10.77;;;8.87;;
3849;SDS011;1940;51.052;13.678;2023-06-10T04:39:07;11.30;;;8.40;;
3849;SDS011;1940;51.052;13.678;2023-06-10T04:41:33;11.83;;;8.97;;
3849;SDS011;1940;51.052;13.678;2023-06-10T04:43:58;12.70;;;9.00;;
3849;SDS011;1940;51.052;13.678;2023-06-10T04:46:23;12.83;;;8.73;;
3849;SDS011;1940;51.052;13.678;2023-06-10T04:48:49;11.63;;;8.73;;
3849;SDS011;1940;51.052;13.678;2023-06-10T04:51:15;10.80;;;8.67;;
3849;SDS011;1940;51.052;13.678;2023-06-10T04:53:41;9.27;;;8.30;;
3849;SDS011;1940;51.052;13.678;2023-06-10T04:56:07;12.60;;;8.70;;
3849;SDS011;1940;51.052;13.678;2023-06-10T04:58:32;11.27;;;7.73;;
3849;SDS011;1940;51.052;13.678;2023-06-10T05:00:58;10.17;;;8.20;;
3849;SDS011;1940;51.052;13.678;2023-06-10T05:03:24;9.40;;;7.93;;
3849;SDS011;1940;51.052;13.678;2023-06-10T05:05:50;9.07;;;8.10;;
3849;SDS011;1940;51.052;13.678;2023-06-10T05:08:16;11.00;;;8.57;;
3849;SDS011;1940;51.052;13.678;2023-06-10T05:10:41;10.90;;;7.60;;
3849;SDS011;1940;51.052;13.678;2023-06-10T05:13:07;11.07;;;8.13;;
3849;SDS011;1940;51.052;13.678;2023-06-10T05:15:32;11.17;;;8.30;;
3849;SDS011;1940;51.052;13.678;2023-06-10T05:17:58;11.30;;;9.07;;
3849;SDS011;1940;51.052;13.678;2023-06-10T05:20:23;11.53;;;9.20;;
3849;SDS011;1940;51.052;13.678;2023-06-10T05:22:50;11.60;;;7.90;;
3849;SDS011;1940;51.052;13.678;2023-06-10T05:25:15;9.00;;;7.90;;
3849;SDS011;1940;51.052;13.678;2023-06-10T05:27:41;12.60;;;7.87;;
3849;SDS011;1940;51.052;13.678;2023-06-10T05:30:08;9.53;;;7.30;;
3849;SDS011;1940;51.052;13.678;2023-06-10T05:32:35;9.23;;;7.53;;
3849;SDS011;1940;51.052;13.678;2023-06-10T05:35:00;10.60;;;7.23;;
3849;SDS011;1940;51.052;13.678;2023-06-10T05:37:26;9.50;;;8.03;;
3849;SDS011;1940;51.052;13.678;2023-06-10T05:39:51;14.60;;;8.17;;
3849;SDS011;1940;51.052;13.678;2023-06-10T05:42:17;10.30;;;8.63;;
3849;SDS011;1940;51.052;13.678;2023-06-10T05:44:42;11.10;;;8.27;;
3849;SDS011;1940;51.052;13.678;2023-06-10T05:47:08;11.90;;;8.03;;
3849;SDS011;1940;51.052;13.678;2023-06-10T05:49:34;8.73;;;7.70;;
3849;SDS011;1940;51.052;13.678;2023-06-10T05:51:59;9.43;;;7.10;;
3849;SDS011;1940;51.052;13.678;2023-06-10T05:54:25;8.87;;;7.43;;
3849;SDS011;1940;51.052;13.678;2023-06-10T05:56:51;11.67;;;7.63;;
3849;SDS011;1940;51.052;13.678;2023-06-10T05:59:17;8.27;;;6.93;;
3849;SDS011;1940;51.052;13.678;2023-06-10T06:01:42;9.13;;;7.83;;
3849;SDS011;1940;51.052;13.678;2023-06-10T06:04:08;9.30;;;8.30;;
3849;SDS011;1940;51.052;13.678;2023-06-10T06:06:34;11.70;;;8.10;;
3849;SDS011;1940;51.052;13.678;2023-06-10T06:09:00;16.93;;;7.97;;
3849;SDS011;1940;51.052;13.678;2023-06-10T06:11:26;8.00;;;7.00;;
3849;SDS011;1940;51.052;13.678;2023-06-10T06:13:52;8.03;;;7.23;;
3849;SDS011;1940;51.052;13.678;2023-06-10T06:16:17;11.77;;;8.33;;
3849;SDS011;1940;51.052;13.678;2023-06-10T06:18:43;10.30;;;8.40;;
3849;SDS011;1940;51.052;13.678;2023-06-10T06:21:09;8.70;;;6.90;;
3849;SDS011;1940;51.052;13.678;2023-06-10T06:23:34;8.27;;;6.87;;
3849;SDS011;1940;51.052;13.678;2023-06-10T06:26:00;9.83;;;7.60;;
3849;SDS011;1940;51.052;13.678;2023-06-10T06:28:26;10.73;;;7.60;;
3849;SDS011;1940;51.052;13.678;2023-06-10T06:30:54;9.53;;;7.43;;
3849;SDS011;1940;51.052;13.678;2023-06-10T06:33:20;8.20;;;7.37;;
3849;SDS011;1940;51.052;13.678;2023-06-10T06:35:46;9.33;;;6.97;;
3849;SDS011;1940;51.052;13.678;2023-06-10T06:38:11;19.10;;;6.90;;
3849;SDS011;1940;51.052;13.678;2023-06-10T06:40:37;8.63;;;7.10;;
3849;SDS011;1940;51.052;13.678;2023-06-10T06:43:02;8.03;;;6.70;;
3849;SDS011;1940;51.052;13.678;2023-06-10T06:45:28;7.83;;;7.03;;
3849;SDS011;1940;51.052;13.678;2023-06-10T06:47:53;12.53;;;7.13;;
3849;SDS011;1940;51.052;13.678;2023-06-10T06:50:20;8.23;;;7.00;;
3849;SDS011;1940;51.052;13.678;2023-06-10T06:52:49;9.03;;;7.37;;
3849;SDS011;1940;51.052;13.678;2023-06-10T06:55:14;9.73;;;6.87;;
3849;SDS011;1940;51.052;13.678;2023-06-10T06:57:40;7.63;;;6.30;;
3849;SDS011;1940;51.052;13.678;2023-06-10T07:00:05;8.27;;;6.30;;
3849;SDS011;1940;51.052;13.678;2023-06-10T07:02:32;8.10;;;6.33;;
3849;SDS011;1940;51.052;13.678;2023-06-10T07:04:59;7.73;;;6.93;;
3849;SDS011;1940;51.052;13.678;2023-06-10T07:07:25;9.43;;;6.70;;
3849;SDS011;1940;51.052;13.678;2023-06-10T07:09:50;9.37;;;6.80;;
3849;SDS011;1940;51.052;13.678;2023-06-10T07:12:16;10.63;;;7.47;;
3849;SDS011;1940;51.052;13.678;2023-06-10T07:14:43;8.27;;;6.47;;
3849;SDS011;1940;51.052;13.678;2023-06-10T07:17:09;8.10;;;6.50;;
3849;SDS011;1940;51.052;13.678;2023-06-10T07:19:35;8.87;;;6.67;;
3849;SDS011;1940;51.052;13.678;2023-06-10T07:22:00;9.63;;;7.23;;
3849;SDS011;1940;51.052;13.678;2023-06-10T07:24:26;9.53;;;7.30;;
3849;SDS011;1940;51.052;13.678;2023-06-10T07:26:51;7.97;;;6.70;;
3849;SDS011;1940;51.052;13.678;2023-06-10T07:29:17;11.73;;;6.43;;
3849;SDS011;1940;51.052;13.678;2023-06-10T07:31:42;8.50;;;6.97;;
3849;SDS011;1940;51.052;13.678;2023-06-10T07:34:08;8.30;;;6.90;;
3849;SDS011;1940;51.052;13.678;2023-06-10T07:36:33;13.17;;;7.17;;
3849;SDS011;1940;51.052;13.678;2023-06-10T07:38:58;6.80;;;6.10;;
3849;SDS011;1940;51.052;13.678;2023-06-10T07:41:24;7.30;;;6.27;;
3849;SDS011;1940;51.052;13.678;2023-06-10T07:43:50;8.80;;;6.70;;
3849;SDS011;1940;51.052;13.678;2023-06-10T07:46:19;9.40;;;5.97;;
3849;SDS011;1940;51.052;13.678;2023-06-10T07:48:46;8.90;;;7.43;;
3849;SDS011;1940;51.052;13.678;2023-06-10T08:02:20;9.03;;;7.50;;
3849;SDS011;1940;51.052;13.678;2023-06-10T08:04:45;8.90;;;7.17;;
3849;SDS011;1940;51.052;13.678;2023-06-10T08:07:11;8.60;;;7.37;;
3849;SDS011;1940;51.052;13.678;2023-06-10T08:09:36;12.47;;;6.83;;
3849;SDS011;1940;51.052;13.678;2023-06-10T08:12:02;10.60;;;7.30;;
3849;SDS011;1940;51.052;13.678;2023-06-10T08:14:28;7.83;;;6.87;;
3849;SDS011;1940;51.052;13.678;2023-06-10T08:16:53;8.20;;;6.50;;
3849;SDS011;1940;51.052;13.678;2023-06-10T08:19:20;8.70;;;6.63;;
3849;SDS011;1940;51.052;13.678;2023-06-10T08:21:45;8.47;;;6.43;;
3849;SDS011;1940;51.052;13.678;2023-06-10T08:24:10;8.13;;;6.13;;
3849;SDS011;1940;51.052;13.678;2023-06-10T08:26:36;11.53;;;5.50;;
3849;SDS011;1940;51.052;13.678;2023-06-10T08:29:05;7.70;;;5.67;;
3849;SDS011;1940;51.052;13.678;2023-06-10T08:31:30;6.70;;;5.70;;
3849;SDS011;1940;51.052;13.678;2023-06-10T08:33:56;7.17;;;6.37;;
3849;SDS011;1940;51.052;13.678;2023-06-10T08:36:21;6.20;;;5.60;;
3849;SDS011;1940;51.052;13.678;2023-06-10T08:38:50;7.93;;;5.93;;
3849;SDS011;1940;51.052;13.678;2023-06-10T08:41:17;6.57;;;5.63;;
3849;SDS011;1940;51.052;13.678;2023-06-10T08:43:59;6.23;;;5.50;;
3849;SDS011;1940;51.052;13.678;2023-06-10T08:46:34;6.30;;;5.20;;
3849;SDS011;1940;51.052;13.678;2023-06-10T08:49:05;6.20;;;5.70;;
3849;SDS011;1940;51.052;13.678;2023-06-10T08:51:34;6.53;;;5.80;;
3849;SDS011;1940;51.052;13.678;2023-06-10T08:54:04;8.40;;;5.50;;
3849;SDS011;1940;51.052;13.678;2023-06-10T08:56:36;10.27;;;6.10;;
3849;SDS011;1940;51.052;13.678;2023-06-10T08:59:05;7.33;;;6.00;;
3849;SDS011;1940;51.052;13.678;2023-06-10T09:01:31;8.13;;;6.27;;
3849;SDS011;1940;51.052;13.678;2023-06-10T09:03:58;7.90;;;5.97;;
3849;SDS011;1940;51.052;13.678;2023-06-10T09:06:24;8.70;;;6.60;;
3849;SDS011;1940;51.052;13.678;2023-06-10T09:08:53;6.90;;;5.70;;
3849;SDS011;1940;51.052;13.678;2023-06-10T09:11:19;7.03;;;6.33;;
3849;SDS011;1940;51.052;13.678;2023-06-10T09:13:47;10.27;;;6.27;;
3849;SDS011;1940;51.052;13.678;2023-06-10T09:16:12;6.73;;;6.00;;
3849;SDS011;1940;51.052;13.678;2023-06-10T09:18:38;7.13;;;6.43;;
3849;SDS011;1940;51.052;13.678;2023-06-10T09:21:04;8.70;;;6.70;;
3849;SDS011;1940;51.052;13.678;2023-06-10T09:23:30;7.20;;;6.20;;
3849;SDS011;1940;51.052;13.678;2023-06-10T09:25:59;8.77;;;6.30;;
3849;SDS011;1940;51.052;13.678;2023-06-10T09:28:24;6.97;;;6.20;;
3849;SDS011;1940;51.052;13.678;2023-06-10T09:31:01;7.67;;;6.87;;
3849;SDS011;1940;51.052;13.678;2023-06-10T09:33:31;7.40;;;6.30;;
3849;SDS011;1940;51.052;13.678;2023-06-10T09:35:57;11.13;;;6.73;;
3849;SDS011;1940;51.052;13.678;2023-06-10T09:38:29;8.03;;;6.70;;
3849;SDS011;1940;51.052;13.678;2023-06-10T09:40:57;8.80;;;7.03;;
3849;SDS011;1940;51.052;13.678;2023-06-10T09:43:38;8.13;;;6.03;;
3849;SDS011;1940;51.052;13.678;2023-06-10T09:46:14;8.80;;;6.60;;
3849;SDS011;1940;51.052;13.678;2023-06-10T09:48:41;7.90;;;7.00;;
3849;SDS011;1940;51.052;13.678;2023-06-10T09:51:11;8.10;;;6.57;;
3849;SDS011;1940;51.052;13.678;2023-06-10T09:53:38;8.97;;;6.13;;
3849;SDS011;1940;51.052;13.678;2023-06-10T09:56:04;11.43;;;6.23;;
3849;SDS011;1940;51.052;13.678;2023-06-10T10:01:07;7.50;;;6.00;;
3849;SDS011;1940;51.052;13.678;2023-06-10T10:03:44;6.73;;;5.97;;
3849;SDS011;1940;51.052;13.678;2023-06-10T10:06:14;11.10;;;6.23;;
3849;SDS011;1940;51.052;13.678;2023-06-10T10:08:40;6.27;;;5.47;;
3849;SDS011;1940;51.052;13.678;2023-06-10T10:11:06;6.70;;;5.43;;
3849;SDS011;1940;51.052;13.678;2023-06-10T10:13:35;8.00;;;5.50;;
3849;SDS011;1940;51.052;13.678;2023-06-10T10:16:04;10.60;;;5.30;;
3849;SDS011;1940;51.052;13.678;2023-06-10T10:18:35;6.73;;;5.73;;
3849;SDS011;1940;51.052;13.678;2023-06-10T10:21:06;7.83;;;5.83;;
3849;SDS011;1940;51.052;13.678;2023-06-10T10:23:40;14.60;;;6.57;;
3849;SDS011;1940;51.052;13.678;2023-06-10T10:26:26;15.70;;;6.33;;
3849;SDS011;1940;51.052;13.678;2023-06-10T10:28:58;8.50;;;6.13;;
3849;SDS011;1940;51.052;13.678;2023-06-10T10:31:47;8.10;;;5.60;;
3849;SDS011;1940;51.052;13.678;2023-06-10T10:34:17;9.10;;;5.97;;
3849;SDS011;1940;51.052;13.678;2023-06-10T10:36:50;9.10;;;6.37;;
3849;SDS011;1940;51.052;13.678;2023-06-10T10:39:16;7.60;;;5.90;;
3849;SDS011;1940;51.052;13.678;2023-06-10T10:41:45;7.57;;;6.47;;
3849;SDS011;1940;51.052;13.678;2023-06-10T10:44:12;12.53;;;7.00;;
3849;SDS011;1940;51.052;13.678;2023-06-10T10:46:45;8.93;;;7.40;;
3849;SDS011;1940;51.052;13.678;2023-06-10T10:49:14;8.23;;;6.40;;
3849;SDS011;1940;51.052;13.678;2023-06-10T10:51:59;7.70;;;6.53;;
3849;SDS011;1940;51.052;13.678;2023-06-10T10:54:33;8.97;;;6.33;;
3849;SDS011;1940;51.052;13.678;2023-06-10T10:59:54;7.60;;;6.17;;
3849;SDS011;1940;51.052;13.678;2023-06-10T11:02:32;10.67;;;6.63;;
3849;SDS011;1940;51.052;13.678;2023-06-10T11:05:03;7.50;;;6.30;;
3849;SDS011;1940;51.052;13.678;2023-06-10T11:07:30;7.13;;;6.20;;
3849;SDS011;1940;51.052;13.678;2023-06-10T11:10:10;7.53;;;6.33;;
3849;SDS011;1940;51.052;13.678;2023-06-10T11:21:03;10.27;;;6.00;;
3849;SDS011;1940;51.052;13.678;2023-06-10T11:31:32;6.97;;;6.23;;
3849;SDS011;1940;51.052;13.678;2023-06-10T11:34:06;7.53;;;6.77;;
3849;SDS011;1940;51.052;13.678;2023-06-10T11:36:33;14.77;;;6.93;;
3849;SDS011;1940;51.052;13.678;2023-06-10T11:39:03;9.20;;;6.77;;
3849;SDS011;1940;51.052;13.678;2023-06-10T11:41:30;8.60;;;5.90;;
3849;SDS011;1940;51.052;13.678;2023-06-10T11:43:57;9.80;;;6.17;;
3849;SDS011;1940;51.052;13.678;2023-06-10T11:46:31;9.90;;;6.60;;
3849;SDS011;1940;51.052;13.678;2023-06-10T11:48:58;11.90;;;7.03;;
3849;SDS011;1940;51.052;13.678;2023-06-10T11:51:25;10.27;;;7.03;;
3849;SDS011;1940;51.052;13.678;2023-06-10T11:53:53;9.57;;;6.50;;
3849;SDS011;1940;51.052;13.678;2023-06-10T11:56:21;6.90;;;6.07;;
3849;SDS011;1940;51.052;13.678;2023-06-10T11:58:57;10.37;;;6.43;;
3849;SDS011;1940;51.052;13.678;2023-06-10T12:01:29;9.03;;;6.20;;
3849;SDS011;1940;51.052;13.678;2023-06-10T12:03:56;8.20;;;6.07;;
3849;SDS011;1940;51.052;13.678;2023-06-10T12:06:23;7.43;;;6.27;;
3849;SDS011;1940;51.052;13.678;2023-06-10T12:08:52;9.87;;;6.30;;
3849;SDS011;1940;51.052;13.678;2023-06-10T12:11:19;7.47;;;6.17;;
3849;SDS011;1940;51.052;13.678;2023-06-10T12:13:47;7.93;;;6.67;;
3849;SDS011;1940;51.052;13.678;2023-06-10T12:16:14;7.90;;;6.57;;
3849;SDS011;1940;51.052;13.678;2023-06-10T12:18:41;8.40;;;6.53;;
3849;SDS011;1940;51.052;13.678;2023-06-10T12:21:23;6.63;;;5.80;;
3849;SDS011;1940;51.052;13.678;2023-06-10T12:27:04;9.87;;;6.07;;
3849;SDS011;1940;51.052;13.678;2023-06-10T12:29:24;7.00;;;5.70;;
3849;SDS011;1940;51.052;13.678;2023-06-10T12:32:00;7.07;;;6.37;;
3849;SDS011;1940;51.052;13.678;2023-06-10T12:34:28;6.07;;;5.37;;
3849;SDS011;1940;51.052;13.678;2023-06-10T12:37:00;7.60;;;5.87;;
3849;SDS011;1940;51.052;13.678;2023-06-10T12:39:26;10.40;;;5.60;;
3849;SDS011;1940;51.052;13.678;2023-06-10T12:41:52;7.03;;;5.33;;
3849;SDS011;1940;51.052;13.678;2023-06-10T12:44:18;10.80;;;6.07;;
3849;SDS011;1940;51.052;13.678;2023-06-10T12:46:56;10.33;;;5.90;;
3849;SDS011;1940;51.052;13.678;2023-06-10T12:49:22;7.80;;;6.53;;
3849;SDS011;1940;51.052;13.678;2023-06-10T12:51:47;9.67;;;6.30;;
3849;SDS011;1940;51.052;13.678;2023-06-10T12:54:20;7.47;;;6.10;;
3849;SDS011;1940;51.052;13.678;2023-06-10T12:56:45;11.60;;;6.63;;
3849;SDS011;1940;51.052;13.678;2023-06-10T12:59:11;9.83;;;6.37;;
3849;SDS011;1940;51.052;13.678;2023-06-10T13:01:37;7.13;;;5.40;;
3849;SDS011;1940;51.052;13.678;2023-06-10T13:04:04;6.57;;;5.87;;
3849;SDS011;1940;51.052;13.678;2023-06-10T13:06:31;11.50;;;5.90;;
3849;SDS011;1940;51.052;13.678;2023-06-10T13:08:58;8.73;;;6.30;;
3849;SDS011;1940;51.052;13.678;2023-06-10T13:11:24;6.50;;;5.80;;
3849;SDS011;1940;51.052;13.678;2023-06-10T13:13:51;6.53;;;5.83;;
3849;SDS011;1940;51.052;13.678;2023-06-10T13:16:17;7.60;;;6.37;;
3849;SDS011;1940;51.052;13.678;2023-06-10T13:18:44;9.03;;;5.83;;
3849;SDS011;1940;51.052;13.678;2023-06-10T13:21:09;7.00;;;5.93;;
3849;SDS011;1940;51.052;13.678;2023-06-10T13:23:35;7.70;;;5.70;;
3849;SDS011;1940;51.052;13.678;2023-06-10T13:26:00;7.90;;;5.40;;
3849;SDS011;1940;51.052;13.678;2023-06-10T13:28:28;6.57;;;5.40;;
3849;SDS011;1940;51.052;13.678;2023-06-10T13:30:53;8.33;;;5.80;;
3849;SDS011;1940;51.052;13.678;2023-06-10T13:33:19;10.67;;;5.40;;
3849;SDS011;1940;51.052;13.678;2023-06-10T13:35:44;6.23;;;5.60;;
3849;SDS011;1940;51.052;13.678;2023-06-10T13:38:10;7.37;;;5.57;;
3849;SDS011;1940;51.052;13.678;2023-06-10T13:40:36;8.63;;;5.83;;
3849;SDS011;1940;51.052;13.678;2023-06-10T13:43:01;7.43;;;5.73;;
3849;SDS011;1940;51.052;13.678;2023-06-10T13:45:27;6.73;;;5.50;;
3849;SDS011;1940;51.052;13.678;2023-06-10T13:47:53;7.13;;;5.40;;
3849;SDS011;1940;51.052;13.678;2023-06-10T13:50:18;7.17;;;5.27;;
3849;SDS011;1940;51.052;13.678;2023-06-10T13:52:44;5.90;;;5.10;;
3849;SDS011;1940;51.052;13.678;2023-06-10T13:55:09;8.43;;;5.40;;
3849;SDS011;1940;51.052;13.678;2023-06-10T13:57:35;6.80;;;5.30;;
3849;SDS011;1940;51.052;13.678;2023-06-10T14:00:02;8.30;;;5.33;;
3849;SDS011;1940;51.052;13.678;2023-06-10T14:02:27;6.63;;;5.30;;
3849;SDS011;1940;51.052;13.678;2023-06-10T14:04:53;8.80;;;4.70;;
3849;SDS011;1940;51.052;13.678;2023-06-10T14:07:19;11.43;;;5.03;;
3849;SDS011;1940;51.052;13.678;2023-06-10T14:09:44;10.07;;;4.90;;
3849;SDS011;1940;51.052;13.678;2023-06-10T14:12:10;7.07;;;4.97;;
3849;SDS011;1940;51.052;13.678;2023-06-10T14:14:36;7.27;;;4.77;;
3849;SDS011;1940;51.052;13.678;2023-06-10T14:17:02;6.53;;;4.93;;
3849;SDS011;1940;51.052;13.678;2023-06-10T14:19:29;6.70;;;4.73;;
3849;SDS011;1940;51.052;13.678;2023-06-10T14:21:54;6.10;;;5.00;;
3849;SDS011;1940;51.052;13.678;2023-06-10T14:24:20;5.07;;;4.47;;
3849;SDS011;1940;51.052;13.678;2023-06-10T14:26:46;6.07;;;4.77;;
3849;SDS011;1940;51.052;13.678;2023-06-10T14:29:12;5.33;;;4.80;;
3849;SDS011;1940;51.052;13.678;2023-06-10T14:31:42;8.20;;;5.50;;
3849;SDS011;1940;51.052;13.678;2023-06-10T14:34:07;5.17;;;4.67;;
3849;SDS011;1940;51.052;13.678;2023-06-10T14:36:33;6.77;;;5.03;;
3849;SDS011;1940;51.052;13.678;2023-06-10T14:38:59;6.47;;;5.30;;
3849;SDS011;1940;51.052;13.678;2023-06-10T14:41:24;6.03;;;4.60;;
3849;SDS011;1940;51.052;13.678;2023-06-10T14:43:51;6.60;;;4.50;;
3849;SDS011;1940;51.052;13.678;2023-06-10T14:46:17;7.43;;;4.60;;
3849;SDS011;1940;51.052;13.678;2023-06-10T14:52:05;6.23;;;4.83;;
3849;SDS011;1940;51.052;13.678;2023-06-10T14:57:53;7.03;;;5.53;;
3849;SDS011;1940;51.052;13.678;2023-06-10T15:00:18;10.87;;;4.97;;
3849;SDS011;1940;51.052;13.678;2023-06-10T15:02:47;7.00;;;4.90;;
3849;SDS011;1940;51.052;13.678;2023-06-10T15:05:13;8.30;;;5.80;;
3849;SDS011;1940;51.052;13.678;2023-06-10T15:07:40;5.80;;;5.20;;
3849;SDS011;1940;51.052;13.678;2023-06-10T15:10:06;6.23;;;5.30;;
3849;SDS011;1940;51.052;13.678;2023-06-10T15:12:31;12.40;;;5.67;;
3849;SDS011;1940;51.052;13.678;2023-06-10T15:14:57;7.10;;;5.73;;
3849;SDS011;1940;51.052;13.678;2023-06-10T15:17:22;7.67;;;5.80;;
3849;SDS011;1940;51.052;13.678;2023-06-10T15:19:48;11.10;;;6.47;;
3849;SDS011;1940;51.052;13.678;2023-06-10T15:22:13;7.17;;;5.70;;
3849;SDS011;1940;51.052;13.678;2023-06-10T15:24:39;7.67;;;5.63;;
3849;SDS011;1940;51.052;13.678;2023-06-10T15:27:04;7.13;;;6.10;;
3849;SDS011;1940;51.052;13.678;2023-06-10T15:29:31;8.23;;;5.83;;
3849;SDS011;1940;51.052;13.678;2023-06-10T15:31:56;8.87;;;5.43;;
3849;SDS011;1940;51.052;13.678;2023-06-10T15:37:44;11.93;;;6.30;;